sensor_id;sensor_type;location;lat;lon;timestamp;temperature;humidity
75457;SHT31;64036;48.266;14.192;2023-05-07T00:02:08;13.58;70.94
75457;SHT31;64036;48.266;14.192;2023-05-07T00:04:34;13.57;71.00
75457;SHT31;64036;48.266;14.192;2023-05-07T00:07:02;13.56;70.94
75457;SHT31;64036;48.266;14.192;2023-05-07T00:09:31;13.55;70.98
75457;SHT31;64036;48.266;14.192;2023-05-07T00:11:56;13.52;71.14
75457;SHT31;64036;48.266;14.192;2023-05-07T00:14:22;13.50;71.11
75457;SHT31;64036;48.266;14.192;2023-05-07T00:16:47;13.51;71.17
75457;SHT31;64036;48.266;14.192;2023-05-07T00:19:14;13.49;71.29
75457;SHT31;64036;48.266;14.192;2023-05-07T00:21:40;13.47;71.36
75457;SHT31;64036;48.266;14.192;2023-05-07T00:24:06;13.45;71.47
75457;SHT31;64036;48.266;14.192;2023-05-07T00:26:31;13.43;71.62
75457;SHT31;64036;48.266;14.192;2023-05-07T00:28:57;13.44;71.60
75457;SHT31;64036;48.266;14.192;2023-05-07T00:31:23;13.46;71.50
75457;SHT31;64036;48.266;14.192;2023-05-07T00:33:48;13.48;71.39
75457;SHT31;64036;48.266;14.192;2023-05-07T00:36:14;13.50;71.40
75457;SHT31;64036;48.266;14.192;2023-05-07T00:38:39;13.51;71.24
75457;SHT31;64036;48.266;14.192;2023-05-07T00:41:11;13.50;71.23
75457;SHT31;64036;48.266;14.192;2023-05-07T00:43:36;13.49;71.39
75457;SHT31;64036;48.266;14.192;2023-05-07T00:46:02;13.44;71.55
75457;SHT31;64036;48.266;14.192;2023-05-07T00:48:28;13.45;71.55
75457;SHT31;64036;48.266;14.192;2023-05-07T00:50:55;13.46;71.49
75457;SHT31;64036;48.266;14.192;2023-05-07T00:53:21;13.46;71.36
75457;SHT31;64036;48.266;14.192;2023-05-07T00:55:47;13.44;71.46
75457;SHT31;64036;48.266;14.192;2023-05-07T00:58:16;13.39;71.61
75457;SHT31;64036;48.266;14.192;2023-05-07T01:00:44;13.35;71.73
75457;SHT31;64036;48.266;14.192;2023-05-07T01:03:10;13.33;71.88
75457;SHT31;64036;48.266;14.192;2023-05-07T01:05:36;13.32;71.86
75457;SHT31;64036;48.266;14.192;2023-05-07T01:08:01;13.30;72.05
75457;SHT31;64036;48.266;14.192;2023-05-07T01:10:30;13.26;72.19
75457;SHT31;64036;48.266;14.192;2023-05-07T01:12:55;13.21;72.37
75457;SHT31;64036;48.266;14.192;2023-05-07T01:15:26;13.16;72.61
75457;SHT31;64036;48.266;14.192;2023-05-07T01:17:52;13.12;72.86
75457;SHT31;64036;48.266;14.192;2023-05-07T01:20:18;13.08;73.08
75457;SHT31;64036;48.266;14.192;2023-05-07T01:22:48;13.06;73.25
75457;SHT31;64036;48.266;14.192;2023-05-07T01:25:17;13.06;73.36
75457;SHT31;64036;48.266;14.192;2023-05-07T01:27:43;13.05;73.40
75457;SHT31;64036;48.266;14.192;2023-05-07T01:30:12;13.03;73.55
75457;SHT31;64036;48.266;14.192;2023-05-07T01:35:22;13.00;73.72
75457;SHT31;64036;48.266;14.192;2023-05-07T01:37:52;12.96;73.86
75457;SHT31;64036;48.266;14.192;2023-05-07T01:40:19;12.94;73.94
75457;SHT31;64036;48.266;14.192;2023-05-07T01:42:49;12.91;74.04
75457;SHT31;64036;48.266;14.192;2023-05-07T01:45:16;12.90;74.06
75457;SHT31;64036;48.266;14.192;2023-05-07T01:47:42;12.90;74.00
75457;SHT31;64036;48.266;14.192;2023-05-07T01:50:09;12.91;73.99
75457;SHT31;64036;48.266;14.192;2023-05-07T01:52:36;12.88;74.09
75457;SHT31;64036;48.266;14.192;2023-05-07T01:55:04;12.86;74.13
75457;SHT31;64036;48.266;14.192;2023-05-07T01:57:31;12.83;74.18
75457;SHT31;64036;48.266;14.192;2023-05-07T01:59:59;12.81;74.14
75457;SHT31;64036;48.266;14.192;2023-05-07T02:02:24;12.79;74.19
75457;SHT31;64036;48.266;14.192;2023-05-07T02:04:50;12.78;74.21
75457;SHT31;64036;48.266;14.192;2023-05-07T02:07:24;12.76;74.20
75457;SHT31;64036;48.266;14.192;2023-05-07T02:09:50;12.74;74.16
75457;SHT31;64036;48.266;14.192;2023-05-07T02:12:18;12.73;74.19
75457;SHT31;64036;48.266;14.192;2023-05-07T02:14:44;12.71;74.20
75457;SHT31;64036;48.266;14.192;2023-05-07T02:17:10;12.69;74.24
75457;SHT31;64036;48.266;14.192;2023-05-07T02:19:35;12.66;74.25
75457;SHT31;64036;48.266;14.192;2023-05-07T02:22:01;12.65;74.22
75457;SHT31;64036;48.266;14.192;2023-05-07T02:24:32;12.64;74.23
75457;SHT31;64036;48.266;14.192;2023-05-07T02:26:58;12.60;74.31
75457;SHT31;64036;48.266;14.192;2023-05-07T02:29:24;12.60;74.32
75457;SHT31;64036;48.266;14.192;2023-05-07T02:31:49;12.57;74.40
75457;SHT31;64036;48.266;14.192;2023-05-07T02:34:16;12.55;74.43
75457;SHT31;64036;48.266;14.192;2023-05-07T02:36:47;12.51;74.57
75457;SHT31;64036;48.266;14.192;2023-05-07T02:39:13;12.48;74.60
75457;SHT31;64036;48.266;14.192;2023-05-07T02:41:40;12.46;74.63
75457;SHT31;64036;48.266;14.192;2023-05-07T02:44:06;12.44;74.86
75457;SHT31;64036;48.266;14.192;2023-05-07T02:46:32;12.43;75.00
75457;SHT31;64036;48.266;14.192;2023-05-07T02:48:58;12.42;74.96
75457;SHT31;64036;48.266;14.192;2023-05-07T02:51:25;12.41;75.00
75457;SHT31;64036;48.266;14.192;2023-05-07T02:53:52;12.42;75.08
75457;SHT31;64036;48.266;14.192;2023-05-07T02:56:20;12.43;75.10
75457;SHT31;64036;48.266;14.192;2023-05-07T02:58:46;12.39;75.07
75457;SHT31;64036;48.266;14.192;2023-05-07T03:01:14;12.36;75.12
75457;SHT31;64036;48.266;14.192;2023-05-07T03:03:39;12.37;75.46
75457;SHT31;64036;48.266;14.192;2023-05-07T03:06:06;12.37;75.65
75457;SHT31;64036;48.266;14.192;2023-05-07T03:08:32;12.40;75.64
75457;SHT31;64036;48.266;14.192;2023-05-07T03:10:58;12.44;75.62
75457;SHT31;64036;48.266;14.192;2023-05-07T03:13:23;12.44;75.60
75457;SHT31;64036;48.266;14.192;2023-05-07T03:15:50;12.44;75.61
75457;SHT31;64036;48.266;14.192;2023-05-07T03:18:15;12.45;75.60
75457;SHT31;64036;48.266;14.192;2023-05-07T03:20:41;12.45;75.71
75457;SHT31;64036;48.266;14.192;2023-05-07T03:23:07;12.42;75.72
75457;SHT31;64036;48.266;14.192;2023-05-07T03:25:35;12.42;75.70
75457;SHT31;64036;48.266;14.192;2023-05-07T03:28:03;12.42;75.70
75457;SHT31;64036;48.266;14.192;2023-05-07T03:30:30;12.41;75.77
75457;SHT31;64036;48.266;14.192;2023-05-07T03:32:59;12.41;75.87
75457;SHT31;64036;48.266;14.192;2023-05-07T03:35:27;12.42;75.89
75457;SHT31;64036;48.266;14.192;2023-05-07T03:37:53;12.40;75.94
75457;SHT31;64036;48.266;14.192;2023-05-07T03:40:18;12.39;76.00
75457;SHT31;64036;48.266;14.192;2023-05-07T03:42:44;12.41;76.03
75457;SHT31;64036;48.266;14.192;2023-05-07T03:45:10;12.41;76.03
75457;SHT31;64036;48.266;14.192;2023-05-07T03:47:35;12.43;76.00
75457;SHT31;64036;48.266;14.192;2023-05-07T03:50:01;12.45;75.92
75457;SHT31;64036;48.266;14.192;2023-05-07T03:52:26;12.48;75.82
75457;SHT31;64036;48.266;14.192;2023-05-07T03:54:52;12.51;75.82
75457;SHT31;64036;48.266;14.192;2023-05-07T03:57:18;12.54;75.76
75457;SHT31;64036;48.266;14.192;2023-05-07T03:59:44;12.57;75.68
75457;SHT31;64036;48.266;14.192;2023-05-07T04:02:10;12.62;75.60
75457;SHT31;64036;48.266;14.192;2023-05-07T04:04:43;12.64;75.62
75457;SHT31;64036;48.266;14.192;2023-05-07T04:07:09;12.69;75.68
75457;SHT31;64036;48.266;14.192;2023-05-07T04:09:35;12.78;75.63
75457;SHT31;64036;48.266;14.192;2023-05-07T04:12:00;12.83;75.64
75457;SHT31;64036;48.266;14.192;2023-05-07T04:14:26;12.92;75.60
75457;SHT31;64036;48.266;14.192;2023-05-07T04:16:52;13.02;75.52
75457;SHT31;64036;48.266;14.192;2023-05-07T04:19:18;13.10;75.39
75457;SHT31;64036;48.266;14.192;2023-05-07T04:21:43;13.20;75.35
75457;SHT31;64036;48.266;14.192;2023-05-07T04:24:09;13.35;75.24
75457;SHT31;64036;48.266;14.192;2023-05-07T04:26:35;13.60;75.07
75457;SHT31;64036;48.266;14.192;2023-05-07T04:29:00;13.89;74.59
75457;SHT31;64036;48.266;14.192;2023-05-07T04:31:26;14.23;74.08
75457;SHT31;64036;48.266;14.192;2023-05-07T04:33:52;14.39;73.67
75457;SHT31;64036;48.266;14.192;2023-05-07T04:36:17;14.48;73.18
75457;SHT31;64036;48.266;14.192;2023-05-07T04:38:43;14.51;72.83
75457;SHT31;64036;48.266;14.192;2023-05-07T04:41:09;14.54;72.68
75457;SHT31;64036;48.266;14.192;2023-05-07T04:43:35;14.57;72.59
75457;SHT31;64036;48.266;14.192;2023-05-07T04:46:00;14.58;72.42
75457;SHT31;64036;48.266;14.192;2023-05-07T04:48:26;14.62;72.16
75457;SHT31;64036;48.266;14.192;2023-05-07T04:50:52;14.64;71.92
75457;SHT31;64036;48.266;14.192;2023-05-07T04:53:18;14.67;71.77
75457;SHT31;64036;48.266;14.192;2023-05-07T04:55:44;14.73;71.78
75457;SHT31;64036;48.266;14.192;2023-05-07T04:58:10;14.81;71.66
75457;SHT31;64036;48.266;14.192;2023-05-07T05:00:37;14.89;71.67
75457;SHT31;64036;48.266;14.192;2023-05-07T05:03:04;15.00;71.42
75457;SHT31;64036;48.266;14.192;2023-05-07T05:05:34;15.14;71.32
75457;SHT31;64036;48.266;14.192;2023-05-07T05:07:59;15.32;70.99
75457;SHT31;64036;48.266;14.192;2023-05-07T05:10:25;15.53;70.65
75457;SHT31;64036;48.266;14.192;2023-05-07T05:12:50;15.76;70.27
75457;SHT31;64036;48.266;14.192;2023-05-07T05:15:16;16.03;69.87
75457;SHT31;64036;48.266;14.192;2023-05-07T05:17:42;16.34;69.14
75457;SHT31;64036;48.266;14.192;2023-05-07T05:20:08;16.78;68.07
75457;SHT31;64036;48.266;14.192;2023-05-07T05:22:35;17.32;67.17
75457;SHT31;64036;48.266;14.192;2023-05-07T05:25:01;17.94;66.03
75457;SHT31;64036;48.266;14.192;2023-05-07T05:27:26;18.62;64.57
75457;SHT31;64036;48.266;14.192;2023-05-07T05:29:52;19.19;62.92
75457;SHT31;64036;48.266;14.192;2023-05-07T05:32:18;19.65;61.45
75457;SHT31;64036;48.266;14.192;2023-05-07T05:34:43;20.04;60.64
75457;SHT31;64036;48.266;14.192;2023-05-07T05:37:09;20.44;59.77
75457;SHT31;64036;48.266;14.192;2023-05-07T05:39:35;20.79;58.02
75457;SHT31;64036;48.266;14.192;2023-05-07T05:42:01;21.09;57.24
75457;SHT31;64036;48.266;14.192;2023-05-07T05:44:27;21.44;56.71
75457;SHT31;64036;48.266;14.192;2023-05-07T05:46:52;21.69;55.56
75457;SHT31;64036;48.266;14.192;2023-05-07T05:49:20;22.03;54.67
75457;SHT31;64036;48.266;14.192;2023-05-07T05:51:46;22.45;54.28
75457;SHT31;64036;48.266;14.192;2023-05-07T05:54:12;22.88;52.93
75457;SHT31;64036;48.266;14.192;2023-05-07T05:56:37;23.36;52.29
75457;SHT31;64036;48.266;14.192;2023-05-07T05:59:03;23.76;51.32
75457;SHT31;64036;48.266;14.192;2023-05-07T06:01:28;24.42;50.25
75457;SHT31;64036;48.266;14.192;2023-05-07T06:03:54;25.22;48.79
75457;SHT31;64036;48.266;14.192;2023-05-07T06:06:19;26.22;47.58
75457;SHT31;64036;48.266;14.192;2023-05-07T06:08:45;27.03;44.20
75457;SHT31;64036;48.266;14.192;2023-05-07T06:11:11;27.33;40.33
75457;SHT31;64036;48.266;14.192;2023-05-07T06:13:36;27.26;40.22
75457;SHT31;64036;48.266;14.192;2023-05-07T06:16:02;26.93;39.81
75457;SHT31;64036;48.266;14.192;2023-05-07T06:18:27;26.48;39.99
75457;SHT31;64036;48.266;14.192;2023-05-07T06:20:53;26.75;40.19
75457;SHT31;64036;48.266;14.192;2023-05-07T06:23:18;27.04;39.44
75457;SHT31;64036;48.266;14.192;2023-05-07T06:25:50;26.75;38.99
75457;SHT31;64036;48.266;14.192;2023-05-07T06:28:16;26.01;40.03
75457;SHT31;64036;48.266;14.192;2023-05-07T06:30:42;26.13;40.19
75457;SHT31;64036;48.266;14.192;2023-05-07T06:33:07;26.21;39.97
75457;SHT31;64036;48.266;14.192;2023-05-07T06:35:33;26.41;39.66
75457;SHT31;64036;48.266;14.192;2023-05-07T06:37:59;27.09;39.52
75457;SHT31;64036;48.266;14.192;2023-05-07T06:40:25;27.64;37.93
75457;SHT31;64036;48.266;14.192;2023-05-07T06:42:51;27.78;37.33
75457;SHT31;64036;48.266;14.192;2023-05-07T06:45:16;28.16;36.88
75457;SHT31;64036;48.266;14.192;2023-05-07T06:47:42;28.49;36.29
75457;SHT31;64036;48.266;14.192;2023-05-07T06:50:08;28.88;36.01
75457;SHT31;64036;48.266;14.192;2023-05-07T06:52:34;29.12;35.83
75457;SHT31;64036;48.266;14.192;2023-05-07T06:55:00;29.18;35.38
75457;SHT31;64036;48.266;14.192;2023-05-07T06:57:26;29.00;35.34
75457;SHT31;64036;48.266;14.192;2023-05-07T06:59:52;29.42;35.21
75457;SHT31;64036;48.266;14.192;2023-05-07T07:02:17;29.60;34.70
75457;SHT31;64036;48.266;14.192;2023-05-07T07:04:43;29.85;34.47
75457;SHT31;64036;48.266;14.192;2023-05-07T07:07:09;29.90;33.77
75457;SHT31;64036;48.266;14.192;2023-05-07T07:09:35;29.97;33.89
75457;SHT31;64036;48.266;14.192;2023-05-07T07:12:01;30.47;33.36
75457;SHT31;64036;48.266;14.192;2023-05-07T07:14:26;31.05;32.92
75457;SHT31;64036;48.266;14.192;2023-05-07T07:16:52;31.66;32.27
75457;SHT31;64036;48.266;14.192;2023-05-07T07:19:17;32.20;31.81
75457;SHT31;64036;48.266;14.192;2023-05-07T07:21:45;32.64;30.62
75457;SHT31;64036;48.266;14.192;2023-05-07T07:24:11;32.43;30.27
75457;SHT31;64036;48.266;14.192;2023-05-07T07:26:37;32.46;31.00
75457;SHT31;64036;48.266;14.192;2023-05-07T07:29:05;32.74;30.47
75457;SHT31;64036;48.266;14.192;2023-05-07T07:31:31;32.51;30.24
75457;SHT31;64036;48.266;14.192;2023-05-07T07:33:57;32.80;30.78
75457;SHT31;64036;48.266;14.192;2023-05-07T07:36:23;33.18;30.31
75457;SHT31;64036;48.266;14.192;2023-05-07T07:38:48;33.29;29.75
75457;SHT31;64036;48.266;14.192;2023-05-07T07:41:14;33.13;29.39
75457;SHT31;64036;48.266;14.192;2023-05-07T07:43:39;33.30;29.57
75457;SHT31;64036;48.266;14.192;2023-05-07T07:46:05;33.50;29.12
75457;SHT31;64036;48.266;14.192;2023-05-07T07:48:30;33.04;29.29
75457;SHT31;64036;48.266;14.192;2023-05-07T07:50:56;32.68;29.40
75457;SHT31;64036;48.266;14.192;2023-05-07T07:53:21;32.61;29.66
75457;SHT31;64036;48.266;14.192;2023-05-07T07:55:47;32.53;30.36
75457;SHT31;64036;48.266;14.192;2023-05-07T07:58:12;32.81;29.94
75457;SHT31;64036;48.266;14.192;2023-05-07T08:00:38;33.33;29.53
75457;SHT31;64036;48.266;14.192;2023-05-07T08:03:04;33.20;28.96
75457;SHT31;64036;48.266;14.192;2023-05-07T08:05:30;33.28;29.52
75457;SHT31;64036;48.266;14.192;2023-05-07T08:07:55;33.76;28.24
75457;SHT31;64036;48.266;14.192;2023-05-07T08:10:21;33.49;27.71
75457;SHT31;64036;48.266;14.192;2023-05-07T08:12:50;32.98;28.30
75457;SHT31;64036;48.266;14.192;2023-05-07T08:15:16;32.24;29.01
75457;SHT31;64036;48.266;14.192;2023-05-07T08:17:42;31.86;29.59
75457;SHT31;64036;48.266;14.192;2023-05-07T08:20:08;31.23;30.16
75457;SHT31;64036;48.266;14.192;2023-05-07T08:22:34;30.34;31.39
75457;SHT31;64036;48.266;14.192;2023-05-07T08:25:01;29.93;32.08
75457;SHT31;64036;48.266;14.192;2023-05-07T08:27:28;29.97;32.40
75457;SHT31;64036;48.266;14.192;2023-05-07T08:29:53;30.02;32.13
75457;SHT31;64036;48.266;14.192;2023-05-07T08:32:20;29.92;32.73
75457;SHT31;64036;48.266;14.192;2023-05-07T08:34:46;30.26;32.33
75457;SHT31;64036;48.266;14.192;2023-05-07T08:37:13;30.13;31.87
75457;SHT31;64036;48.266;14.192;2023-05-07T08:39:38;29.66;32.89
75457;SHT31;64036;48.266;14.192;2023-05-07T08:42:04;29.45;33.26
75457;SHT31;64036;48.266;14.192;2023-05-07T08:44:33;29.84;33.06
75457;SHT31;64036;48.266;14.192;2023-05-07T08:47:00;30.11;32.51
75457;SHT31;64036;48.266;14.192;2023-05-07T08:49:27;29.75;32.53
75457;SHT31;64036;48.266;14.192;2023-05-07T08:51:53;29.67;32.83
75457;SHT31;64036;48.266;14.192;2023-05-07T08:54:21;29.41;32.89
75457;SHT31;64036;48.266;14.192;2023-05-07T08:56:47;28.98;33.62
75457;SHT31;64036;48.266;14.192;2023-05-07T08:59:13;28.98;33.86
75457;SHT31;64036;48.266;14.192;2023-05-07T09:01:39;29.00;34.60
75457;SHT31;64036;48.266;14.192;2023-05-07T09:04:05;28.64;34.34
75457;SHT31;64036;48.266;14.192;2023-05-07T09:06:31;28.69;34.35
75457;SHT31;64036;48.266;14.192;2023-05-07T09:08:58;28.85;34.46
75457;SHT31;64036;48.266;14.192;2023-05-07T09:11:26;28.78;34.04
75457;SHT31;64036;48.266;14.192;2023-05-07T09:13:55;28.74;33.98
75457;SHT31;64036;48.266;14.192;2023-05-07T09:16:29;28.89;33.96
75457;SHT31;64036;48.266;14.192;2023-05-07T09:18:56;28.99;34.01
75457;SHT31;64036;48.266;14.192;2023-05-07T09:21:23;28.75;34.28
75457;SHT31;64036;48.266;14.192;2023-05-07T09:23:53;28.48;34.82
75457;SHT31;64036;48.266;14.192;2023-05-07T09:26:21;28.35;34.97
75457;SHT31;64036;48.266;14.192;2023-05-07T09:28:47;28.40;35.39
75457;SHT31;64036;48.266;14.192;2023-05-07T09:31:13;28.78;35.23
75457;SHT31;64036;48.266;14.192;2023-05-07T09:33:39;28.96;34.58
75457;SHT31;64036;48.266;14.192;2023-05-07T09:36:06;29.20;34.96
75457;SHT31;64036;48.266;14.192;2023-05-07T09:38:35;29.73;35.12
75457;SHT31;64036;48.266;14.192;2023-05-07T09:41:03;29.99;33.62
75457;SHT31;64036;48.266;14.192;2023-05-07T09:43:32;30.06;33.86
75457;SHT31;64036;48.266;14.192;2023-05-07T09:46:05;30.09;33.21
75457;SHT31;64036;48.266;14.192;2023-05-07T09:48:39;29.96;34.04
75457;SHT31;64036;48.266;14.192;2023-05-07T09:54:05;29.02;34.25
75457;SHT31;64036;48.266;14.192;2023-05-07T09:56:31;28.46;35.12
75457;SHT31;64036;48.266;14.192;2023-05-07T09:59:00;28.12;35.69
75457;SHT31;64036;48.266;14.192;2023-05-07T10:01:29;27.95;36.20
75457;SHT31;64036;48.266;14.192;2023-05-07T10:03:56;28.24;36.09
75457;SHT31;64036;48.266;14.192;2023-05-07T10:06:23;28.44;36.06
75457;SHT31;64036;48.266;14.192;2023-05-07T10:08:51;28.47;36.56
75457;SHT31;64036;48.266;14.192;2023-05-07T10:11:18;27.96;36.70
75457;SHT31;64036;48.266;14.192;2023-05-07T10:13:43;27.71;37.48
75457;SHT31;64036;48.266;14.192;2023-05-07T10:16:11;27.70;37.10
75457;SHT31;64036;48.266;14.192;2023-05-07T10:18:37;27.64;37.57
75457;SHT31;64036;48.266;14.192;2023-05-07T10:21:16;27.71;38.24
75457;SHT31;64036;48.266;14.192;2023-05-07T10:23:49;27.62;37.92
75457;SHT31;64036;48.266;14.192;2023-05-07T10:26:22;27.43;37.22
75457;SHT31;64036;48.266;14.192;2023-05-07T10:28:50;27.35;37.56
75457;SHT31;64036;48.266;14.192;2023-05-07T10:34:01;26.75;38.75
75457;SHT31;64036;48.266;14.192;2023-05-07T10:36:35;26.42;39.56
75457;SHT31;64036;48.266;14.192;2023-05-07T10:39:01;26.46;39.55
75457;SHT31;64036;48.266;14.192;2023-05-07T10:41:26;26.65;38.96
75457;SHT31;64036;48.266;14.192;2023-05-07T10:43:52;26.74;38.64
75457;SHT31;64036;48.266;14.192;2023-05-07T10:46:18;26.75;38.83
75457;SHT31;64036;48.266;14.192;2023-05-07T10:51:31;26.78;38.50
75457;SHT31;64036;48.266;14.192;2023-05-07T10:56:42;27.01;37.84
75457;SHT31;64036;48.266;14.192;2023-05-07T11:02:03;26.92;37.71
75457;SHT31;64036;48.266;14.192;2023-05-07T11:04:31;26.88;37.66
75457;SHT31;64036;48.266;14.192;2023-05-07T11:10:04;26.58;39.34
75457;SHT31;64036;48.266;14.192;2023-05-07T11:15:04;26.14;40.34
75457;SHT31;64036;48.266;14.192;2023-05-07T11:17:53;26.20;40.10
75457;SHT31;64036;48.266;14.192;2023-05-07T11:26:00;26.68;39.40
75457;SHT31;64036;48.266;14.192;2023-05-07T11:28:31;26.69;39.47
75457;SHT31;64036;48.266;14.192;2023-05-07T11:31:02;26.58;39.30
75457;SHT31;64036;48.266;14.192;2023-05-07T11:33:32;26.44;38.62
75457;SHT31;64036;48.266;14.192;2023-05-07T11:35:59;26.29;39.71
75457;SHT31;64036;48.266;14.192;2023-05-07T11:38:26;25.99;39.93
75457;SHT31;64036;48.266;14.192;2023-05-07T11:40:55;25.71;40.13
75457;SHT31;64036;48.266;14.192;2023-05-07T11:43:25;25.33;40.06
75457;SHT31;64036;48.266;14.192;2023-05-07T11:45:52;25.31;41.11
75457;SHT31;64036;48.266;14.192;2023-05-07T11:48:18;25.51;40.87
75457;SHT31;64036;48.266;14.192;2023-05-07T11:50:53;25.60;40.19
75457;SHT31;64036;48.266;14.192;2023-05-07T11:53:26;25.67;40.30
75457;SHT31;64036;48.266;14.192;2023-05-07T11:56:15;25.79;40.42
75457;SHT31;64036;48.266;14.192;2023-05-07T11:58:43;25.91;40.13
75457;SHT31;64036;48.266;14.192;2023-05-07T12:01:10;26.04;40.19
75457;SHT31;64036;48.266;14.192;2023-05-07T12:03:39;26.03;39.87
75457;SHT31;64036;48.266;14.192;2023-05-07T12:06:07;26.11;40.49
75457;SHT31;64036;48.266;14.192;2023-05-07T12:08:36;26.24;39.89
75457;SHT31;64036;48.266;14.192;2023-05-07T12:11:03;26.14;39.29
75457;SHT31;64036;48.266;14.192;2023-05-07T12:13:32;25.88;39.17
75457;SHT31;64036;48.266;14.192;2023-05-07T12:15:58;25.69;40.88
75457;SHT31;64036;48.266;14.192;2023-05-07T12:18:24;25.70;40.43
75457;SHT31;64036;48.266;14.192;2023-05-07T12:20:50;25.76;39.80
75457;SHT31;64036;48.266;14.192;2023-05-07T12:23:16;25.80;39.70
75457;SHT31;64036;48.266;14.192;2023-05-07T12:25:43;25.77;39.34
75457;SHT31;64036;48.266;14.192;2023-05-07T12:28:15;25.72;40.98
75457;SHT31;64036;48.266;14.192;2023-05-07T12:30:43;25.64;39.56
75457;SHT31;64036;48.266;14.192;2023-05-07T12:33:11;25.66;40.13
75457;SHT31;64036;48.266;14.192;2023-05-07T12:35:42;25.89;40.33
75457;SHT31;64036;48.266;14.192;2023-05-07T12:38:11;26.13;40.43
75457;SHT31;64036;48.266;14.192;2023-05-07T12:43:05;26.19;39.83
75457;SHT31;64036;48.266;14.192;2023-05-07T12:45:31;26.08;39.98
75457;SHT31;64036;48.266;14.192;2023-05-07T12:48:04;25.97;39.67
75457;SHT31;64036;48.266;14.192;2023-05-07T12:50:33;25.92;40.42
75457;SHT31;64036;48.266;14.192;2023-05-07T12:52:59;25.98;40.23
75457;SHT31;64036;48.266;14.192;2023-05-07T12:55:24;26.05;40.20
75457;SHT31;64036;48.266;14.192;2023-05-07T12:57:50;26.05;40.37
75457;SHT31;64036;48.266;14.192;2023-05-07T13:00:18;26.05;40.51
75457;SHT31;64036;48.266;14.192;2023-05-07T13:03:09;26.15;40.90
75457;SHT31;64036;48.266;14.192;2023-05-07T13:05:36;26.16;40.55
75457;SHT31;64036;48.266;14.192;2023-05-07T13:08:02;26.08;40.87
75457;SHT31;64036;48.266;14.192;2023-05-07T13:10:28;25.89;40.95
75457;SHT31;64036;48.266;14.192;2023-05-07T13:12:54;25.70;41.44
75457;SHT31;64036;48.266;14.192;2023-05-07T13:15:19;25.46;41.64
75457;SHT31;64036;48.266;14.192;2023-05-07T13:17:46;25.32;42.30
75457;SHT31;64036;48.266;14.192;2023-05-07T13:20:12;25.22;42.58
75457;SHT31;64036;48.266;14.192;2023-05-07T13:22:38;25.10;42.93
75457;SHT31;64036;48.266;14.192;2023-05-07T13:25:05;25.11;42.74
75457;SHT31;64036;48.266;14.192;2023-05-07T13:27:31;25.11;42.13
75457;SHT31;64036;48.266;14.192;2023-05-07T13:29:57;25.12;41.99
75457;SHT31;64036;48.266;14.192;2023-05-07T13:32:22;25.07;42.30
75457;SHT31;64036;48.266;14.192;2023-05-07T13:34:48;25.07;42.17
75457;SHT31;64036;48.266;14.192;2023-05-07T13:37:13;25.13;42.51
75457;SHT31;64036;48.266;14.192;2023-05-07T13:39:39;25.23;42.76
75457;SHT31;64036;48.266;14.192;2023-05-07T13:42:06;25.34;41.60
75457;SHT31;64036;48.266;14.192;2023-05-07T13:44:31;25.36;41.50
75457;SHT31;64036;48.266;14.192;2023-05-07T13:46:57;25.47;41.64
75457;SHT31;64036;48.266;14.192;2023-05-07T13:49:23;25.36;40.77
75457;SHT31;64036;48.266;14.192;2023-05-07T13:51:49;25.14;40.66
75457;SHT31;64036;48.266;14.192;2023-05-07T13:54:14;24.97;41.13
75457;SHT31;64036;48.266;14.192;2023-05-07T13:56:41;24.96;41.62
75457;SHT31;64036;48.266;14.192;2023-05-07T13:59:06;25.02;41.25
75457;SHT31;64036;48.266;14.192;2023-05-07T14:01:32;24.86;41.57
75457;SHT31;64036;48.266;14.192;2023-05-07T14:03:58;24.74;41.70
75457;SHT31;64036;48.266;14.192;2023-05-07T14:06:24;24.54;42.02
75457;SHT31;64036;48.266;14.192;2023-05-07T14:08:50;24.40;42.74
75457;SHT31;64036;48.266;14.192;2023-05-07T14:11:16;24.39;42.89
75457;SHT31;64036;48.266;14.192;2023-05-07T14:13:41;24.41;43.36
75457;SHT31;64036;48.266;14.192;2023-05-07T14:16:07;24.34;43.15
75457;SHT31;64036;48.266;14.192;2023-05-07T14:18:32;24.14;43.31
75457;SHT31;64036;48.266;14.192;2023-05-07T14:20:59;23.95;43.74
75457;SHT31;64036;48.266;14.192;2023-05-07T14:23:25;23.88;44.36
75457;SHT31;64036;48.266;14.192;2023-05-07T14:25:54;23.95;44.02
75457;SHT31;64036;48.266;14.192;2023-05-07T14:28:22;24.00;44.28
75457;SHT31;64036;48.266;14.192;2023-05-07T14:30:48;24.14;44.47
75457;SHT31;64036;48.266;14.192;2023-05-07T14:33:14;24.19;43.99
75457;SHT31;64036;48.266;14.192;2023-05-07T14:35:39;24.19;43.96
75457;SHT31;64036;48.266;14.192;2023-05-07T14:38:05;24.18;44.19
75457;SHT31;64036;48.266;14.192;2023-05-07T14:40:31;24.08;45.08
75457;SHT31;64036;48.266;14.192;2023-05-07T14:42:56;23.97;44.82
75457;SHT31;64036;48.266;14.192;2023-05-07T14:45:22;23.91;45.06
75457;SHT31;64036;48.266;14.192;2023-05-07T14:47:48;23.81;45.43
75457;SHT31;64036;48.266;14.192;2023-05-07T14:50:14;23.64;45.62
75457;SHT31;64036;48.266;14.192;2023-05-07T14:52:39;23.57;46.57
75457;SHT31;64036;48.266;14.192;2023-05-07T14:55:05;23.56;46.01
75457;SHT31;64036;48.266;14.192;2023-05-07T14:57:31;23.58;45.96
75457;SHT31;64036;48.266;14.192;2023-05-07T15:00:00;23.58;45.90
75457;SHT31;64036;48.266;14.192;2023-05-07T15:02:29;23.55;46.40
75457;SHT31;64036;48.266;14.192;2023-05-07T15:04:55;23.45;47.11
75457;SHT31;64036;48.266;14.192;2023-05-07T15:07:20;23.30;47.48
75457;SHT31;64036;48.266;14.192;2023-05-07T15:09:46;23.20;47.59
75457;SHT31;64036;48.266;14.192;2023-05-07T15:12:12;23.13;47.91
75457;SHT31;64036;48.266;14.192;2023-05-07T15:14:41;23.06;47.96
75457;SHT31;64036;48.266;14.192;2023-05-07T15:17:06;22.89;48.57
75457;SHT31;64036;48.266;14.192;2023-05-07T15:19:32;22.77;48.46
75457;SHT31;64036;48.266;14.192;2023-05-07T15:21:58;22.72;48.96
75457;SHT31;64036;48.266;14.192;2023-05-07T15:24:28;22.49;49.39
75457;SHT31;64036;48.266;14.192;2023-05-07T15:26:54;22.34;49.96
75457;SHT31;64036;48.266;14.192;2023-05-07T15:29:20;22.27;50.53
75457;SHT31;64036;48.266;14.192;2023-05-07T15:31:50;22.19;50.57
75457;SHT31;64036;48.266;14.192;2023-05-07T15:34:17;22.14;50.37
75457;SHT31;64036;48.266;14.192;2023-05-07T15:36:42;22.06;50.79
75457;SHT31;64036;48.266;14.192;2023-05-07T15:39:08;22.00;51.27
75457;SHT31;64036;48.266;14.192;2023-05-07T15:41:35;21.89;51.41
75457;SHT31;64036;48.266;14.192;2023-05-07T15:44:02;21.80;51.32